createdAt,value
2017-06-02T00:00:00.899Z,0
2017-06-02T00:01:01.513Z,0
2017-06-02T00:02:02.161Z,0
2017-06-02T00:03:02.823Z,0
2017-06-02T00:04:03.444Z,0
2017-06-02T00:05:04.060Z,0
2017-06-02T00:06:04.678Z,0
2017-06-02T00:07:05.286Z,0
2017-06-02T00:08:05.949Z,0
2017-06-02T00:09:06.564Z,0
2017-06-02T00:10:07.181Z,0
2017-06-02T00:11:07.794Z,0
2017-06-02T00:12:08.438Z,0
2017-06-02T00:13:09.107Z,0
2017-06-02T00:14:09.716Z,0
2017-06-02T00:15:10.329Z,0
2017-06-02T00:16:10.949Z,0
2017-06-02T00:17:11.560Z,0
2017-06-02T00:18:12.230Z,0
2017-06-02T00:19:12.837Z,0
2017-06-02T00:20:13.450Z,0
2017-06-02T00:21:14.063Z,0
2017-06-02T00:22:14.682Z,0
2017-06-02T00:23:15.343Z,0
2017-06-02T00:24:15.957Z,0
2017-06-02T00:25:16.571Z,0
2017-06-02T00:26:17.184Z,0
2017-06-02T00:27:17.797Z,0
2017-06-02T00:28:18.409Z,0
2017-06-02T00:29:19.023Z,0
2017-06-02T00:30:19.635Z,0
2017-06-02T00:31:20.256Z,0
2017-06-02T00:32:20.868Z,0
2017-06-02T00:33:21.531Z,0
2017-06-02T00:34:22.144Z,0
2017-06-02T00:35:22.756Z,0
2017-06-02T00:36:23.371Z,0
2017-06-02T00:37:23.983Z,0
2017-06-02T00:38:24.604Z,0
2017-06-02T00:39:25.258Z,0
2017-06-02T00:40:25.870Z,0
2017-06-02T00:41:26.481Z,0
2017-06-02T00:42:27.094Z,0
2017-06-02T00:43:27.713Z,0
2017-06-02T00:44:28.323Z,0
2017-06-02T00:45:28.941Z,0
2017-06-02T00:46:29.548Z,0
2017-06-02T00:47:30.169Z,0
2017-06-02T00:48:30.780Z,0
2017-06-02T00:49:31.393Z,0
2017-06-02T00:50:32.007Z,0
2017-06-02T00:51:32.625Z,0
2017-06-02T00:52:33.238Z,0
2017-06-02T00:53:33.850Z,0
2017-06-02T00:54:34.497Z,0
2017-06-02T00:55:35.109Z,0
2017-06-02T00:56:35.723Z,0
2017-06-02T00:57:36.337Z,0
2017-06-02T00:58:36.951Z,0
2017-06-02T00:59:37.565Z,0
2017-06-02T01:00:38.179Z,0
2017-06-02T01:01:38.797Z,0
2017-06-02T01:02:39.407Z,0
2017-06-02T01:03:40.026Z,0
2017-06-02T01:04:40.637Z,0
2017-06-02T01:05:41.251Z,0
2017-06-02T01:06:41.867Z,0
2017-06-02T01:07:42.478Z,0
2017-06-02T01:08:43.148Z,0
2017-06-02T01:09:43.763Z,0
2017-06-02T01:10:44.379Z,0
2017-06-02T01:11:45.026Z,0
2017-06-02T01:12:45.639Z,0
2017-06-02T01:13:46.254Z,0
2017-06-02T01:14:46.868Z,0
2017-06-02T01:15:47.485Z,0
2017-06-02T01:16:48.096Z,0
2017-06-02T01:17:48.709Z,0
2017-06-02T01:18:49.372Z,0
2017-06-02T01:19:49.989Z,0
2017-06-02T01:20:50.604Z,0
2017-06-02T01:21:51.215Z,0
2017-06-02T01:22:51.862Z,0
2017-06-02T01:23:52.525Z,0
2017-06-02T01:24:53.139Z,0
2017-06-02T01:25:53.751Z,0
2017-06-02T01:26:54.364Z,0
2017-06-02T01:27:54.982Z,0
2017-06-02T01:28:55.594Z,0
2017-06-02T01:29:56.208Z,0
2017-06-02T01:30:56.823Z,0
2017-06-02T01:31:57.435Z,0
2017-06-02T01:32:58.048Z,0
2017-06-02T01:33:58.693Z,0
2017-06-02T01:34:59.340Z,0
2017-06-02T01:35:59.951Z,0
2017-06-02T01:37:00.565Z,0
2017-06-02T01:38:01.179Z,0
2017-06-02T01:39:01.842Z,0
2017-06-02T01:40:02.453Z,0
2017-06-02T01:41:03.074Z,0
2017-06-02T01:42:03.737Z,0
2017-06-02T01:43:04.348Z,0
2017-06-02T01:44:04.969Z,0
2017-06-02T01:45:05.578Z,0
2017-06-02T01:46:06.223Z,0
2017-06-02T01:47:06.886Z,0
2017-06-02T01:48:07.499Z,0
2017-06-02T01:49:08.120Z,0
2017-06-02T01:50:08.729Z,0
2017-06-02T01:51:09.343Z,0
2017-06-02T01:52:09.956Z,0
2017-06-02T01:53:10.568Z,0
2017-06-02T01:54:11.185Z,0
2017-06-02T01:55:11.796Z,0
2017-06-02T01:56:12.409Z,0
2017-06-02T01:57:13.072Z,0
2017-06-02T01:58:13.690Z,0
2017-06-02T01:59:14.301Z,0
2017-06-02T02:00:14.914Z,0
2017-06-02T02:01:15.528Z,0
2017-06-02T02:02:16.190Z,0
2017-06-02T02:03:16.805Z,0
2017-06-02T02:04:17.419Z,0
2017-06-02T02:05:18.031Z,0
2017-06-02T02:06:18.644Z,0
2017-06-02T02:07:19.257Z,0
2017-06-02T02:08:19.877Z,0
2017-06-02T02:09:20.485Z,0
2017-06-02T02:10:21.102Z,0
2017-06-02T02:11:21.714Z,0
2017-06-02T02:12:22.329Z,0
2017-06-02T02:13:22.948Z,0
2017-06-02T02:14:23.563Z,0
2017-06-02T02:15:24.208Z,0
2017-06-02T02:16:24.823Z,0
2017-06-02T02:17:25.441Z,0
2017-06-02T02:18:26.056Z,0
2017-06-02T02:19:26.665Z,0
2017-06-02T02:20:27.311Z,0
2017-06-02T02:21:27.930Z,0
2017-06-02T02:22:28.590Z,0
2017-06-02T02:23:29.203Z,0
2017-06-02T02:24:29.850Z,0
2017-06-02T02:25:30.462Z,0
2017-06-02T02:26:31.074Z,0
2017-06-02T02:27:31.738Z,0
2017-06-02T02:28:32.356Z,0
2017-06-02T02:29:32.966Z,0
2017-06-02T02:30:33.580Z,0
2017-06-02T02:31:34.194Z,0
2017-06-02T02:32:34.863Z,0
2017-06-02T02:33:35.476Z,0
2017-06-02T02:34:36.088Z,0
2017-06-02T02:35:36.706Z,0
2017-06-02T02:36:37.317Z,0
2017-06-02T02:37:37.981Z,0
2017-06-02T02:38:38.599Z,0
2017-06-02T02:39:39.243Z,0
2017-06-02T02:40:39.889Z,0
2017-06-02T02:41:40.502Z,0
2017-06-02T02:42:41.168Z,0
2017-06-02T02:43:41.783Z,0
2017-06-02T02:44:42.394Z,0
2017-06-02T02:45:43.007Z,0
2017-06-02T02:46:43.621Z,0
2017-06-02T02:47:44.323Z,0
2017-06-02T02:48:44.931Z,0
2017-06-02T02:49:45.549Z,0
2017-06-02T02:50:46.165Z,0
2017-06-02T02:51:46.774Z,0
2017-06-02T02:52:47.443Z,0
2017-06-02T02:53:48.064Z,0
2017-06-02T02:54:48.672Z,0
2017-06-02T02:55:49.317Z,0
2017-06-02T02:56:49.929Z,0
2017-06-02T02:57:50.542Z,0
2017-06-02T02:58:51.155Z,0
2017-06-02T02:59:51.768Z,0
2017-06-02T03:00:52.385Z,0
2017-06-02T03:01:53.004Z,0
2017-06-02T03:02:53.615Z,0
2017-06-02T03:03:54.229Z,0
2017-06-02T03:04:54.879Z,0
2017-06-02T03:05:55.526Z,0
2017-06-02T03:06:56.178Z,0
2017-06-02T03:07:56.847Z,0
2017-06-02T03:08:57.460Z,0
2017-06-02T03:09:58.071Z,0
2017-06-02T03:10:58.689Z,0
2017-06-02T03:11:59.301Z,0
2017-06-02T03:12:59.963Z,0
2017-06-02T03:14:00.581Z,0
2017-06-02T03:15:01.188Z,0
2017-06-02T03:16:01.801Z,0
2017-06-02T03:17:02.417Z,0
2017-06-02T03:18:03.075Z,0
2017-06-02T03:19:03.688Z,0
2017-06-02T03:20:04.307Z,0
2017-06-02T03:21:04.917Z,0
2017-06-02T03:22:05.529Z,0
2017-06-02T03:23:06.140Z,0
2017-06-02T03:24:06.757Z,0
2017-06-02T03:25:07.366Z,0
2017-06-02T03:26:07.984Z,0
2017-06-02T03:27:08.591Z,0
2017-06-02T03:28:09.253Z,0
2017-06-02T03:29:09.865Z,0
2017-06-02T03:30:10.478Z,0
2017-06-02T03:31:11.124Z,0
2017-06-02T03:32:11.737Z,0
2017-06-02T03:33:12.349Z,0
2017-06-02T03:34:12.959Z,0
2017-06-02T03:35:13.577Z,0
2017-06-02T03:36:14.186Z,0
2017-06-02T03:37:14.830Z,0
2017-06-02T03:38:15.441Z,0
2017-06-02T03:39:16.054Z,0
2017-06-02T03:40:16.665Z,0
2017-06-02T03:41:17.277Z,0
2017-06-02T03:42:17.920Z,0
2017-06-02T03:43:18.534Z,0
2017-06-02T03:44:19.153Z,0
2017-06-02T03:45:19.767Z,0
2017-06-02T03:46:20.410Z,0
2017-06-02T03:47:21.023Z,0
2017-06-02T03:48:21.638Z,0
2017-06-02T03:49:22.252Z,0
2017-06-02T03:50:22.865Z,0
2017-06-02T03:51:23.476Z,0
2017-06-02T03:52:24.091Z,0
2017-06-02T03:53:24.705Z,0
2017-06-02T03:54:25.323Z,0
2017-06-02T03:55:25.933Z,0
2017-06-02T03:56:26.543Z,0
2017-06-02T03:57:27.159Z,0
2017-06-02T03:58:27.829Z,0
2017-06-02T03:59:28.439Z,0
2017-06-02T04:00:29.052Z,0
2017-06-02T04:01:29.664Z,0
2017-06-02T04:02:30.278Z,0
2017-06-02T04:03:30.893Z,0
2017-06-02T04:04:31.508Z,0
2017-06-02T04:05:32.129Z,0
2017-06-02T04:06:32.746Z,0
2017-06-02T04:07:33.356Z,0
2017-06-02T04:08:34.018Z,0
2017-06-02T04:09:34.634Z,0
2017-06-02T04:10:35.248Z,0
2017-06-02T04:11:35.859Z,0
2017-06-02T04:12:36.477Z,0
2017-06-02T04:13:37.144Z,0
2017-06-02T04:14:37.753Z,0
2017-06-02T04:15:38.368Z,0
2017-06-02T04:16:38.982Z,0
2017-06-02T04:17:39.601Z,0
2017-06-02T04:18:40.263Z,0
2017-06-02T04:19:40.875Z,0
2017-06-02T04:20:41.487Z,0
2017-06-02T04:21:42.133Z,0
2017-06-02T04:22:42.748Z,0
2017-06-02T04:23:43.443Z,0
2017-06-02T04:24:44.066Z,0
2017-06-02T04:25:44.712Z,0
2017-06-02T04:26:45.333Z,0
2017-06-02T04:27:45.940Z,0
2017-06-02T04:28:46.606Z,0
2017-06-02T04:29:47.219Z,0
2017-06-02T04:30:47.834Z,0
2017-06-02T04:31:48.454Z,0
2017-06-02T04:32:49.064Z,0
2017-06-02T04:33:49.726Z,0
2017-06-02T04:34:50.340Z,0
2017-06-02T04:35:50.958Z,0
2017-06-02T04:36:51.568Z,0
2017-06-02T04:37:52.197Z,0
2017-06-02T04:38:52.802Z,0
2017-06-02T04:39:53.451Z,0
2017-06-02T04:40:54.065Z,0
2017-06-02T04:41:54.677Z,0
2017-06-02T04:42:55.292Z,0
2017-06-02T04:43:55.910Z,0
2017-06-02T04:44:56.519Z,0
2017-06-02T04:45:57.135Z,0
2017-06-02T04:46:57.748Z,0
2017-06-02T04:47:58.361Z,0
2017-06-02T04:48:59.025Z,0
2017-06-02T04:49:59.644Z,0
2017-06-02T04:51:00.258Z,0
2017-06-02T04:52:00.868Z,0
2017-06-02T04:53:01.482Z,0
2017-06-02T04:54:02.155Z,0
2017-06-02T04:55:02.766Z,0
2017-06-02T04:56:03.379Z,0
2017-06-02T04:57:03.998Z,0
2017-06-02T04:58:04.645Z,0
2017-06-02T04:59:05.344Z,0
2017-06-02T05:00:05.996Z,0
2017-06-02T05:01:06.615Z,0
2017-06-02T05:02:07.231Z,0
2017-06-02T05:03:07.844Z,0
2017-06-02T05:04:08.489Z,0
2017-06-02T05:05:09.111Z,0
2017-06-02T05:06:09.727Z,0
2017-06-02T05:07:10.338Z,0
2017-06-02T05:08:10.953Z,0
2017-06-02T05:09:11.574Z,0
2017-06-02T05:10:12.190Z,0
2017-06-02T05:11:12.804Z,0
2017-06-02T05:12:13.413Z,0
2017-06-02T05:13:14.032Z,0
2017-06-02T05:14:14.694Z,0
2017-06-02T05:15:15.311Z,0
2017-06-02T05:16:15.923Z,0
2017-06-02T05:17:16.571Z,0
2017-06-02T05:18:17.187Z,0
2017-06-02T05:19:17.887Z,0
2017-06-02T05:20:18.497Z,0
2017-06-02T05:21:19.115Z,0
2017-06-02T05:22:19.768Z,0
2017-06-02T05:23:20.386Z,0
2017-06-02T05:24:21.035Z,0
2017-06-02T05:25:21.648Z,0
2017-06-02T05:26:22.263Z,0
2017-06-02T05:27:22.876Z,0
2017-06-02T05:28:23.520Z,0
2017-06-02T05:29:24.136Z,0
2017-06-02T05:30:24.754Z,0
2017-06-02T05:31:25.365Z,5
2017-06-02T05:32:25.978Z,5
2017-06-02T05:33:26.593Z,5
2017-06-02T05:34:27.209Z,5
2017-06-02T05:35:27.829Z,5
2017-06-02T05:36:28.439Z,5
2017-06-02T05:37:29.096Z,5
2017-06-02T05:38:29.699Z,5
2017-06-02T05:39:30.361Z,5
2017-06-02T05:40:30.982Z,5
2017-06-02T05:41:31.595Z,5
2017-06-02T05:42:32.210Z,5
2017-06-02T05:43:32.823Z,5
2017-06-02T05:44:33.486Z,5
2017-06-02T05:45:34.102Z,5
2017-06-02T05:46:34.756Z,5
2017-06-02T05:47:35.367Z,5
2017-06-02T05:48:35.983Z,5
2017-06-02T05:49:36.647Z,5
2017-06-02T05:50:37.263Z,5
2017-06-02T05:51:37.877Z,5
2017-06-02T05:52:38.490Z,5
2017-06-02T05:53:39.137Z,5
2017-06-02T05:54:39.801Z,5
2017-06-02T05:55:40.417Z,5
2017-06-02T05:56:41.030Z,5
2017-06-02T05:57:41.645Z,5
2017-06-02T05:58:42.291Z,5
2017-06-02T05:59:42.961Z,5
2017-06-02T06:00:43.572Z,5
2017-06-02T06:01:44.186Z,5
2017-06-02T06:02:44.833Z,5
2017-06-02T06:03:45.452Z,5
2017-06-02T06:04:46.121Z,5
2017-06-02T06:05:46.732Z,5
2017-06-02T06:06:47.346Z,5
2017-06-02T06:07:47.960Z,5
2017-06-02T06:08:48.574Z,5
2017-06-02T06:09:49.238Z,5
2017-06-02T06:10:49.853Z,5
2017-06-02T06:11:50.466Z,5
2017-06-02T06:12:51.087Z,10
2017-06-02T06:13:51.699Z,10
2017-06-02T06:14:52.397Z,10
2017-06-02T06:15:53.018Z,10
2017-06-02T06:16:53.667Z,10
2017-06-02T06:17:54.290Z,10
2017-06-02T06:18:54.904Z,10
2017-06-02T06:19:55.570Z,10
2017-06-02T06:20:56.187Z,10
2017-06-02T06:21:56.809Z,10
2017-06-02T06:22:57.421Z,10
2017-06-02T06:23:58.068Z,10
2017-06-02T06:24:58.734Z,10
2017-06-02T06:25:59.357Z,10
2017-06-02T06:26:59.971Z,10
2017-06-02T06:28:00.589Z,10
2017-06-02T06:29:01.203Z,10
2017-06-02T06:30:01.875Z,10
2017-06-02T06:31:02.488Z,10
2017-06-02T06:32:03.105Z,10
2017-06-02T06:33:03.719Z,10
2017-06-02T06:34:04.341Z,10
2017-06-02T06:35:04.954Z,10
2017-06-02T06:36:05.569Z,10
2017-06-02T06:37:06.221Z,10
2017-06-02T06:38:06.839Z,10
2017-06-02T06:39:07.452Z,10
2017-06-02T06:40:08.068Z,10
2017-06-02T06:41:08.689Z,10
2017-06-02T06:42:09.303Z,10
2017-06-02T06:43:09.918Z,10
2017-06-02T06:44:10.538Z,10
2017-06-02T06:45:11.205Z,10
2017-06-02T06:46:11.852Z,10
2017-06-02T06:47:12.469Z,10
2017-06-02T06:48:13.091Z,10
2017-06-02T06:49:13.707Z,10
2017-06-02T06:50:14.371Z,10
2017-06-02T06:51:14.991Z,10
2017-06-02T06:52:15.639Z,10
2017-06-02T06:53:16.261Z,10
2017-06-02T06:54:16.879Z,10
2017-06-02T06:55:17.498Z,10
2017-06-02T06:56:18.112Z,10
2017-06-02T06:57:18.727Z,10
2017-06-02T06:58:19.343Z,10
2017-06-02T06:59:19.963Z,10
2017-06-02T07:00:20.625Z,10
2017-06-02T07:01:21.247Z,10
2017-06-02T07:02:21.866Z,10
2017-06-02T07:03:22.480Z,10
2017-06-02T07:04:23.095Z,10
2017-06-02T07:05:23.801Z,10
2017-06-02T07:06:24.417Z,10
2017-06-02T07:07:25.039Z,10
2017-06-02T07:08:25.653Z,10
2017-06-02T07:09:26.270Z,10
2017-06-02T07:10:26.937Z,10
2017-06-02T07:11:27.555Z,10
2017-06-02T07:12:28.171Z,10
2017-06-02T07:13:28.819Z,10
2017-06-02T07:14:29.436Z,10
2017-06-02T07:15:30.054Z,10
2017-06-02T07:16:30.678Z,10
2017-06-02T07:17:31.295Z,10
2017-06-02T07:18:31.913Z,10
2017-06-02T07:19:32.541Z,10
2017-06-02T07:20:33.234Z,10
2017-06-02T07:21:33.854Z,10
2017-06-02T07:22:34.466Z,10
2017-06-02T07:23:35.083Z,10
2017-06-02T07:24:35.700Z,10
2017-06-02T07:25:36.366Z,10
2017-06-02T07:26:36.990Z,10
2017-06-02T07:27:37.604Z,10
2017-06-02T07:28:38.222Z,10
2017-06-02T07:29:38.839Z,10
2017-06-02T07:30:39.454Z,10
2017-06-02T07:31:40.073Z,10
2017-06-02T07:32:40.691Z,10
2017-06-02T07:33:41.309Z,10
2017-06-02T07:34:41.925Z,10
2017-06-02T07:35:42.590Z,10
2017-06-02T07:36:43.210Z,10
2017-06-02T07:37:43.825Z,10
2017-06-02T07:38:44.444Z,10
2017-06-02T07:39:45.059Z,10
2017-06-02T07:40:45.726Z,10
2017-06-02T07:41:46.344Z,10
2017-06-02T07:42:46.960Z,10
2017-06-02T07:43:47.577Z,10
2017-06-02T07:44:48.200Z,15
2017-06-02T07:45:48.901Z,15
2017-06-02T07:46:49.520Z,15
2017-06-02T07:47:50.142Z,15
2017-06-02T07:48:50.791Z,15
2017-06-02T07:49:51.411Z,15
2017-06-02T07:50:52.025Z,15
2017-06-02T07:51:52.643Z,15
2017-06-02T07:52:53.261Z,15
2017-06-02T07:53:53.884Z,15
2017-06-02T07:54:54.501Z,15
2017-06-02T07:55:55.117Z,15
2017-06-02T07:56:55.735Z,15
2017-06-02T07:57:56.355Z,15
2017-06-02T07:58:56.970Z,15
2017-06-02T07:59:57.588Z,15
2017-06-02T08:00:58.257Z,15
2017-06-02T08:01:58.875Z,15
2017-06-02T08:02:59.493Z,15
2017-06-02T08:04:00.116Z,15
2017-06-02T08:05:00.733Z,15
2017-06-02T08:06:01.401Z,15
2017-06-02T08:07:02.018Z,15
2017-06-02T08:08:02.636Z,15
2017-06-02T08:09:03.253Z,15
2017-06-02T08:10:03.902Z,15
2017-06-02T08:11:04.525Z,15
2017-06-02T08:12:05.142Z,15
2017-06-02T08:13:05.765Z,15
2017-06-02T08:14:06.381Z,15
2017-06-02T08:15:07.030Z,15
2017-06-02T08:16:07.647Z,15
2017-06-02T08:17:08.265Z,15
2017-06-02T08:18:08.881Z,15
2017-06-02T08:19:09.505Z,15
2017-06-02T08:20:10.119Z,15
2017-06-02T08:21:10.793Z,15
2017-06-02T08:22:11.408Z,15
2017-06-02T08:23:12.058Z,15
2017-06-02T08:24:12.677Z,15
2017-06-02T08:25:13.296Z,15
2017-06-02T08:26:13.966Z,15
2017-06-02T08:27:14.579Z,15
2017-06-02T08:28:15.197Z,15
2017-06-02T08:29:15.816Z,15
2017-06-02T08:30:16.436Z,15
2017-06-02T08:31:17.052Z,15
2017-06-02T08:32:17.670Z,15
2017-06-02T08:33:18.292Z,15
2017-06-02T08:34:18.915Z,15
2017-06-02T08:35:19.529Z,15
2017-06-02T08:36:20.203Z,20
2017-06-02T08:37:20.818Z,15
2017-06-02T08:38:21.437Z,15
2017-06-02T08:39:22.061Z,15
2017-06-02T08:40:22.676Z,20
2017-06-02T08:41:23.345Z,20
2017-06-02T08:42:23.964Z,20
2017-06-02T08:43:24.585Z,20
2017-06-02T08:44:25.206Z,25
2017-06-02T08:45:25.820Z,20
2017-06-02T08:46:26.489Z,20
2017-06-02T08:47:27.108Z,20
2017-06-02T08:48:27.725Z,20
2017-06-02T08:49:28.349Z,20
2017-06-02T08:50:28.964Z,20
2017-06-02T08:51:29.638Z,20
2017-06-02T08:52:30.259Z,20
2017-06-02T08:53:30.875Z,20
2017-06-02T08:54:31.493Z,20
2017-06-02T08:55:32.119Z,20
2017-06-02T08:56:32.741Z,20
2017-06-02T08:57:33.357Z,20
2017-06-02T08:58:33.987Z,20
2017-06-02T08:59:34.593Z,20
2017-06-02T09:00:35.212Z,20
2017-06-02T09:01:35.835Z,20
2017-06-02T09:02:36.484Z,20
2017-06-02T09:03:37.101Z,25
2017-06-02T09:04:37.720Z,25
2017-06-02T09:05:38.338Z,25
2017-06-02T09:06:39.006Z,25
2017-06-02T09:07:39.631Z,25
2017-06-02T09:08:40.247Z,25
2017-06-02T09:09:40.896Z,25
2017-06-02T09:10:41.521Z,25
2017-06-02T09:11:42.187Z,25
2017-06-02T09:12:42.807Z,25
2017-06-02T09:13:43.425Z,25
2017-06-02T09:14:44.054Z,25
2017-06-02T09:15:44.662Z,25
2017-06-02T09:16:45.335Z,25
2017-06-02T09:17:45.989Z,25
2017-06-02T09:18:46.608Z,25
2017-06-02T09:19:47.228Z,25
2017-06-02T09:20:47.880Z,25
2017-06-02T09:21:48.549Z,25
2017-06-02T09:22:49.167Z,25
2017-06-02T09:23:49.791Z,25
2017-06-02T09:24:50.407Z,25
2017-06-02T09:25:51.026Z,25
2017-06-02T09:26:51.644Z,25
2017-06-02T09:27:52.265Z,25
2017-06-02T09:28:52.883Z,25
2017-06-02T09:29:53.508Z,25
2017-06-02T09:30:54.126Z,25
2017-06-02T09:31:54.786Z,25
2017-06-02T09:32:55.398Z,25
2017-06-02T09:33:56.019Z,25
2017-06-02T09:34:56.646Z,25
2017-06-02T09:35:57.261Z,25
2017-06-02T09:36:57.886Z,30
2017-06-02T09:37:58.507Z,30
2017-06-02T09:38:59.125Z,30
2017-06-02T09:39:59.746Z,30
2017-06-02T09:41:00.366Z,30
2017-06-02T09:42:01.241Z,30
2017-06-02T09:43:01.857Z,30
2017-06-02T09:44:02.475Z,30
2017-06-02T09:45:03.097Z,30
2017-06-02T09:46:03.720Z,30
2017-06-02T09:47:04.387Z,30
2017-06-02T09:48:05.007Z,30
2017-06-02T09:49:05.627Z,30
2017-06-02T09:50:06.247Z,30
2017-06-02T09:51:06.869Z,30
2017-06-02T09:52:07.493Z,30
2017-06-02T09:53:08.109Z,30
2017-06-02T09:54:08.731Z,30
2017-06-02T09:55:09.355Z,35
2017-06-02T09:56:09.972Z,35
2017-06-02T09:57:10.641Z,35
2017-06-02T09:58:11.261Z,35
2017-06-02T09:59:11.913Z,35
2017-06-02T10:00:12.535Z,35
2017-06-02T10:01:13.153Z,35
2017-06-02T10:02:13.825Z,35
2017-06-02T10:03:14.443Z,35
2017-06-02T10:04:15.065Z,35
2017-06-02T10:05:15.685Z,35
2017-06-02T10:06:16.305Z,35
2017-06-02T10:07:16.925Z,35
2017-06-02T10:08:17.544Z,35
2017-06-02T10:09:18.163Z,35
2017-06-02T10:10:18.791Z,35
2017-06-02T10:11:19.406Z,35
2017-06-02T10:12:20.067Z,35
2017-06-02T10:13:20.717Z,35
2017-06-02T10:14:21.337Z,35
2017-06-02T10:15:21.956Z,35
2017-06-02T10:16:22.576Z,35
2017-06-02T10:17:23.247Z,35
2017-06-02T10:18:23.867Z,35
2017-06-02T10:19:24.487Z,35
2017-06-02T10:20:25.114Z,35
2017-06-02T10:21:25.730Z,35
2017-06-02T10:22:26.402Z,35
2017-06-02T10:23:27.022Z,35
2017-06-02T10:24:27.641Z,35
2017-06-02T10:25:28.263Z,35
2017-06-02T10:26:28.890Z,40
2017-06-02T10:27:29.566Z,40
2017-06-02T10:28:30.182Z,40
2017-06-02T10:29:30.804Z,40
2017-06-02T10:30:31.425Z,40
2017-06-02T10:31:32.051Z,40
2017-06-02T10:32:32.674Z,40
2017-06-02T10:33:33.327Z,40
2017-06-02T10:34:33.980Z,40
2017-06-02T10:35:34.605Z,40
2017-06-02T10:36:35.223Z,40
2017-06-02T10:37:35.850Z,40
2017-06-02T10:38:36.469Z,40
2017-06-02T10:39:37.089Z,40
2017-06-02T10:40:37.708Z,40
2017-06-02T10:41:38.336Z,40
2017-06-02T10:42:38.993Z,40
2017-06-02T10:43:39.612Z,40
2017-06-02T10:44:40.234Z,40
2017-06-02T10:45:40.856Z,40
2017-06-02T10:46:41.482Z,40
2017-06-02T10:47:42.153Z,40
2017-06-02T10:48:42.773Z,40
2017-06-02T10:49:43.391Z,40
2017-06-02T10:50:44.012Z,45
2017-06-02T10:51:44.635Z,45
2017-06-02T10:52:45.311Z,45
2017-06-02T10:53:45.929Z,45
2017-06-02T10:54:46.552Z,45
2017-06-02T10:55:47.212Z,45
2017-06-02T10:56:47.832Z,45
2017-06-02T10:57:48.452Z,45
2017-06-02T10:58:49.079Z,45
2017-06-02T10:59:49.696Z,45
2017-06-02T11:00:50.316Z,45
2017-06-02T11:01:50.939Z,45
2017-06-02T11:02:51.560Z,45
2017-06-02T11:03:52.180Z,45
2017-06-02T11:04:52.801Z,45
2017-06-02T11:05:53.421Z,45
2017-06-02T11:06:54.041Z,45
2017-06-02T11:07:54.714Z,45
2017-06-02T11:08:55.335Z,45
2017-06-02T11:09:55.956Z,45
2017-06-02T11:10:56.583Z,50
2017-06-02T11:11:57.230Z,50
2017-06-02T11:12:58.128Z,50
2017-06-02T11:13:58.747Z,50
2017-06-02T11:14:59.374Z,50
2017-06-02T11:16:00.028Z,50
2017-06-02T11:17:00.651Z,50
2017-06-02T11:18:01.332Z,50
2017-06-02T11:19:01.948Z,50
2017-06-02T11:20:02.569Z,50
2017-06-02T11:21:03.191Z,50
2017-06-02T11:22:03.815Z,50
2017-06-02T11:23:04.485Z,50
2017-06-02T11:24:05.106Z,50
2017-06-02T11:25:05.727Z,50
2017-06-02T11:26:06.349Z,50
2017-06-02T11:27:06.971Z,50
2017-06-02T11:28:07.650Z,50
2017-06-02T11:29:08.265Z,50
2017-06-02T11:30:08.888Z,50
2017-06-02T11:31:09.545Z,50
2017-06-02T11:32:10.166Z,50
2017-06-02T11:33:10.986Z,50
2017-06-02T11:34:11.608Z,50
2017-06-02T11:35:12.230Z,50
2017-06-02T11:36:12.858Z,50
2017-06-02T11:37:13.510Z,50
2017-06-02T11:38:14.138Z,50
2017-06-02T11:39:14.758Z,50
2017-06-02T11:40:15.386Z,50
2017-06-02T11:41:16.005Z,50
2017-06-02T11:42:16.626Z,50
2017-06-02T11:43:17.297Z,50
2017-06-02T11:44:17.921Z,50
2017-06-02T11:45:18.584Z,50
2017-06-02T11:46:19.202Z,50
2017-06-02T11:47:19.823Z,50
2017-06-02T11:48:20.699Z,50
2017-06-02T11:49:21.315Z,50
2017-06-02T11:50:21.938Z,50
2017-06-02T11:51:22.568Z,55
2017-06-02T11:52:23.187Z,55
2017-06-02T11:53:23.809Z,55
2017-06-02T11:54:24.430Z,55
2017-06-02T11:55:25.052Z,55
2017-06-02T11:56:25.675Z,55
2017-06-02T11:57:26.296Z,55
2017-06-02T11:58:26.918Z,55
2017-06-02T11:59:27.546Z,55
2017-06-02T12:00:28.165Z,55
2017-06-02T12:01:28.794Z,55
2017-06-02T12:02:29.411Z,55
2017-06-02T12:03:30.084Z,55
2017-06-02T12:04:30.710Z,60
2017-06-02T12:05:31.332Z,60
2017-06-02T12:06:31.960Z,60
2017-06-02T12:07:32.590Z,60
2017-06-02T12:08:33.295Z,60
2017-06-02T12:09:33.919Z,60
2017-06-02T12:10:34.545Z,60
2017-06-02T12:11:35.168Z,60
2017-06-02T12:12:35.795Z,60
2017-06-02T12:13:36.467Z,60
2017-06-02T12:14:37.089Z,60
2017-06-02T12:15:37.711Z,60
2017-06-02T12:16:38.371Z,60
2017-06-02T12:17:39.027Z,60
2017-06-02T12:18:39.706Z,60
2017-06-02T12:19:40.330Z,60
2017-06-02T12:20:40.958Z,60
2017-06-02T12:21:41.577Z,60
2017-06-02T12:22:42.200Z,60
2017-06-02T12:23:42.874Z,60
2017-06-02T12:24:43.502Z,60
2017-06-02T12:25:44.158Z,60
2017-06-02T12:26:44.782Z,60
2017-06-02T12:27:45.405Z,60
2017-06-02T12:28:46.087Z,60
2017-06-02T12:29:46.714Z,60
2017-06-02T12:30:47.336Z,60
2017-06-02T12:31:47.967Z,60
2017-06-02T12:32:48.588Z,60
2017-06-02T12:33:49.218Z,60
2017-06-02T12:34:49.837Z,60
2017-06-02T12:35:50.461Z,60
2017-06-02T12:36:51.087Z,60
2017-06-02T12:37:51.715Z,60
2017-06-02T12:38:52.387Z,60
2017-06-02T12:39:53.013Z,60
2017-06-02T12:40:53.642Z,60
2017-06-02T12:41:54.264Z,60
2017-06-02T12:42:54.893Z,60
2017-06-02T12:43:55.566Z,60
2017-06-02T12:44:56.196Z,60
2017-06-02T12:45:56.816Z,60
2017-06-02T12:46:57.472Z,60
2017-06-02T12:47:58.097Z,65
2017-06-02T12:48:58.729Z,65
2017-06-02T12:49:59.386Z,65
2017-06-02T12:51:00.011Z,65
2017-06-02T12:52:00.636Z,65
2017-06-02T12:53:01.257Z,65
2017-06-02T12:54:01.935Z,65
2017-06-02T12:55:02.560Z,65
2017-06-02T12:56:03.184Z,65
2017-06-02T12:57:03.809Z,65
2017-06-02T12:58:04.440Z,65
2017-06-02T12:59:05.066Z,70
2017-06-02T13:00:05.694Z,70
2017-06-02T13:01:06.344Z,65
2017-06-02T13:02:06.967Z,65
2017-06-02T13:03:07.599Z,65
2017-06-02T13:04:08.226Z,65
2017-06-02T13:05:08.848Z,65
2017-06-02T13:06:09.473Z,65
2017-06-02T13:07:10.100Z,70
2017-06-02T13:08:10.730Z,70
2017-06-02T13:09:11.436Z,65
2017-06-02T13:10:12.059Z,65
2017-06-02T13:11:12.687Z,65
2017-06-02T13:12:13.314Z,65
2017-06-02T13:13:13.935Z,70
2017-06-02T13:14:14.609Z,70
2017-06-02T13:15:15.233Z,70
2017-06-02T13:16:15.865Z,70
2017-06-02T13:17:16.488Z,70
2017-06-02T13:18:17.112Z,70
2017-06-02T13:19:17.786Z,70
2017-06-02T13:20:18.419Z,65
2017-06-02T13:21:19.045Z,65
2017-06-02T13:22:19.663Z,65
2017-06-02T13:23:20.287Z,65
2017-06-02T13:24:20.913Z,65
2017-06-02T13:25:21.544Z,65
2017-06-02T13:26:22.166Z,65
2017-06-02T13:27:22.822Z,65
2017-06-02T13:28:23.446Z,65
2017-06-02T13:29:24.123Z,65
2017-06-02T13:30:24.781Z,65
2017-06-02T13:31:25.405Z,65
2017-06-02T13:32:26.037Z,65
2017-06-02T13:33:26.659Z,65
2017-06-02T13:34:27.285Z,65
2017-06-02T13:35:27.910Z,65
2017-06-02T13:36:28.535Z,65
2017-06-02T13:37:29.159Z,65
2017-06-02T13:38:29.790Z,65
2017-06-02T13:39:30.449Z,70
2017-06-02T13:40:31.082Z,70
2017-06-02T13:41:31.704Z,70
2017-06-02T13:42:32.361Z,65
2017-06-02T13:43:32.987Z,65
2017-06-02T13:44:33.693Z,70
2017-06-02T13:45:34.317Z,70
2017-06-02T13:46:34.948Z,70
2017-06-02T13:47:35.570Z,70
2017-06-02T13:48:36.194Z,70
2017-06-02T13:49:36.874Z,70
2017-06-02T13:50:37.500Z,70
2017-06-02T13:51:38.158Z,70
2017-06-02T13:52:38.782Z,75
2017-06-02T13:53:39.405Z,60
2017-06-02T13:54:40.086Z,75
2017-06-02T13:55:40.709Z,75
2017-06-02T13:56:41.334Z,80
2017-06-02T13:57:41.957Z,75
2017-06-02T13:58:42.582Z,75
2017-06-02T13:59:43.213Z,75
2017-06-02T14:00:43.835Z,65
2017-06-02T14:01:44.461Z,70
2017-06-02T14:02:45.085Z,75
2017-06-02T14:03:45.709Z,75
2017-06-02T14:04:46.336Z,70
2017-06-02T14:05:46.996Z,70
2017-06-02T14:06:47.626Z,70
2017-06-02T14:07:48.249Z,70
2017-06-02T14:08:48.873Z,65
2017-06-02T14:09:49.581Z,65
2017-06-02T14:10:50.207Z,65
2017-06-02T14:11:50.832Z,70
2017-06-02T14:12:51.458Z,65
2017-06-02T14:13:52.082Z,70
2017-06-02T14:14:52.757Z,70
2017-06-02T14:15:53.389Z,70
2017-06-02T14:16:54.017Z,70
2017-06-02T14:17:54.646Z,65
2017-06-02T14:18:55.270Z,65
2017-06-02T14:19:55.944Z,65
2017-06-02T14:20:56.576Z,65
2017-06-02T14:21:57.199Z,65
2017-06-02T14:22:57.825Z,65
2017-06-02T14:23:58.449Z,65
2017-06-02T14:24:59.074Z,65
2017-06-02T14:25:59.698Z,65
2017-06-02T14:27:00.324Z,70
2017-06-02T14:28:00.948Z,70
2017-06-02T14:29:01.573Z,70
2017-06-02T14:30:02.263Z,70
2017-06-02T14:31:02.883Z,70
2017-06-02T14:32:03.504Z,70
2017-06-02T14:33:04.134Z,70
2017-06-02T14:34:04.762Z,70
2017-06-02T14:35:05.384Z,70
2017-06-02T14:36:06.009Z,70
2017-06-02T14:37:06.636Z,70